Terminal Aerodrome Forecast
Issued by NWS

Home | Current Version | Previous Version | Text Only | Print | Product List | Glossary On
Versions: 1 2 3 4 5 6 7 8 9 10 11 12
000
FTUS43 KSGF 052300
TAFJLN
TAF
KJLN 052320Z 0600/0624 14012G20KT P6SM SCT050 BKN150
     FM060500 15010KT P6SM VCTS SCT050CB BKN100 WS020/17040KT PROB30
      0610/0612 3SM TSRA OVC030CB
     FM061200 17015G22KT 3SM TSRA OVC030CB
     FM061800 16015G22KT P6SM VCTS BKN050CB=

USA.gov is the U.S. government's official web portal to all federal, state and local government web resources and services.